createdAt,value
2022-11-30T00:00:28.252Z,207.90
2022-11-30T00:03:16.260Z,191.10
2022-11-30T00:06:05.800Z,181.50
2022-11-30T00:08:54.415Z,194.53
2022-11-30T00:11:42.417Z,213.37
2022-11-30T00:14:31.718Z,198.00
2022-11-30T00:17:19.659Z,180.53
2022-11-30T00:20:09.494Z,201.30
2022-11-30T00:22:58.109Z,189.10
2022-11-30T00:25:46.019Z,191.43
2022-11-30T00:28:35.093Z,190.63
2022-11-30T00:31:24.916Z,187.87
2022-11-30T00:34:12.950Z,194.83
2022-11-30T00:37:00.888Z,192.33
2022-11-30T00:39:48.924Z,190.67
2022-11-30T00:42:36.890Z,194.93
2022-11-30T00:45:24.806Z,183.73
2022-11-30T00:48:14.053Z,198.27
2022-11-30T00:51:02.062Z,178.20
2022-11-30T00:53:49.998Z,194.33
2022-11-30T00:56:37.992Z,197.83
2022-11-30T00:59:25.954Z,203.50
2022-11-30T01:02:14.157Z,191.80
2022-11-30T01:05:03.490Z,191.70
2022-11-30T01:07:51.612Z,207.33
2022-11-30T01:10:41.979Z,192.20
2022-11-30T01:13:29.902Z,195.10
2022-11-30T01:16:20.090Z,190.10
2022-11-30T01:19:08.087Z,184.83
2022-11-30T01:21:57.344Z,191.77
2022-11-30T01:24:45.628Z,205.60
2022-11-30T01:27:33.741Z,184.70
2022-11-30T01:30:21.670Z,195.63
2022-11-30T01:33:09.566Z,201.83
2022-11-30T01:36:01.732Z,209.90
2022-11-30T01:38:53.174Z,193.93
2022-11-30T01:41:41.722Z,205.17
2022-11-30T01:44:55.176Z,210.97
2022-11-30T01:47:48.628Z,193.40
2022-11-30T01:50:37.608Z,196.17
2022-11-30T01:53:25.859Z,207.33
2022-11-30T01:56:15.249Z,193.17
2022-11-30T01:59:03.337Z,208.83
2022-11-30T02:01:52.633Z,196.50
2022-11-30T02:04:41.055Z,191.40
2022-11-30T02:07:29.359Z,203.73
2022-11-30T02:10:18.944Z,200.90
2022-11-30T02:13:24.225Z,193.23
2022-11-30T02:16:25.292Z,197.20
2022-11-30T02:19:34.296Z,201.93
2022-11-30T02:22:37.674Z,213.60
2022-11-30T02:25:37.502Z,198.13
2022-11-30T02:28:46.999Z,194.43
2022-11-30T02:31:43.734Z,202.47
2022-11-30T02:34:35.034Z,205.50
2022-11-30T02:37:25.045Z,198.07
2022-11-30T02:40:17.964Z,204.73
2022-11-30T02:43:07.909Z,197.97
2022-11-30T02:46:06.858Z,207.73
2022-11-30T02:49:03.222Z,189.27
2022-11-30T02:51:53.179Z,213.03
2022-11-30T02:54:41.439Z,213.27
2022-11-30T02:57:29.397Z,217.90
2022-11-30T03:00:18.321Z,202.33
2022-11-30T03:03:07.619Z,209.23
2022-11-30T03:05:55.533Z,203.77
2022-11-30T03:08:43.477Z,200.47
2022-11-30T03:11:31.421Z,224.00
2022-11-30T03:14:19.358Z,202.10
2022-11-30T03:17:07.467Z,183.37
2022-11-30T03:19:56.740Z,203.93
2022-11-30T03:22:44.679Z,219.97
2022-11-30T03:25:33.257Z,197.83
2022-11-30T03:28:21.171Z,200.33
2022-11-30T03:31:12.224Z,197.00
2022-11-30T03:34:00.364Z,191.00
2022-11-30T03:36:49.634Z,206.30
2022-11-30T03:39:37.574Z,204.20
2022-11-30T03:42:25.489Z,202.17
2022-11-30T03:45:13.451Z,204.90
2022-11-30T03:48:01.395Z,212.00
2022-11-30T03:50:49.681Z,203.43
2022-11-30T03:53:39.375Z,198.47
2022-11-30T03:56:27.292Z,209.97
2022-11-30T03:59:15.234Z,207.43
2022-11-30T04:02:03.223Z,217.90
2022-11-30T04:04:51.143Z,222.03
2022-11-30T04:07:39.105Z,200.47
2022-11-30T04:10:28.437Z,217.90
2022-11-30T04:13:16.347Z,218.23
2022-11-30T04:16:04.912Z,216.33
2022-11-30T04:18:52.851Z,219.40
2022-11-30T04:21:40.870Z,207.83
2022-11-30T04:24:28.902Z,213.73
2022-11-30T04:27:18.163Z,227.83
2022-11-30T04:30:07.610Z,199.70
2022-11-30T04:32:55.584Z,215.77
2022-11-30T04:35:45.815Z,213.43
2022-11-30T04:38:34.315Z,217.50
2022-11-30T04:41:22.228Z,215.50
2022-11-30T04:44:11.667Z,203.47
2022-11-30T04:46:59.652Z,219.17
2022-11-30T04:49:47.629Z,214.70
2022-11-30T04:52:35.742Z,200.57
2022-11-30T04:55:23.665Z,214.93
2022-11-30T04:58:11.607Z,213.27
2022-11-30T05:01:00.922Z,222.10
2022-11-30T05:03:48.930Z,229.13
2022-11-30T05:06:36.852Z,218.53
2022-11-30T05:09:24.786Z,211.17
2022-11-30T05:12:12.670Z,213.67
2022-11-30T05:15:00.746Z,230.53
2022-11-30T05:17:50.109Z,216.67
2022-11-30T05:20:38.021Z,213.53
2022-11-30T05:23:25.953Z,220.83
2022-11-30T05:26:14.132Z,226.17
2022-11-30T05:29:02.362Z,227.23
2022-11-30T05:31:50.552Z,225.53
2022-11-30T05:34:50.133Z,213.77
2022-11-30T05:37:39.555Z,217.03
2022-11-30T05:40:28.767Z,231.40
2022-11-30T05:43:16.929Z,214.97
2022-11-30T05:46:08.123Z,222.33
2022-11-30T05:48:56.016Z,227.40
2022-11-30T05:51:45.316Z,215.77
2022-11-30T05:54:34.586Z,197.13
2022-11-30T05:57:22.608Z,215.43
2022-11-30T06:00:11.462Z,198.90
2022-11-30T06:03:02.512Z,206.47
2022-11-30T06:05:52.244Z,212.57
2022-11-30T06:08:41.690Z,199.93
2022-11-30T06:11:29.612Z,211.97
2022-11-30T06:14:17.787Z,219.70
2022-11-30T06:17:05.767Z,220.80
2022-11-30T06:19:53.718Z,214.10
2022-11-30T06:22:41.649Z,211.97
2022-11-30T06:25:32.013Z,207.67
2022-11-30T06:28:19.930Z,219.90
2022-11-30T06:31:08.871Z,212.00
2022-11-30T06:33:58.065Z,208.87
2022-11-30T06:36:45.991Z,205.47
2022-11-30T06:40:04.179Z,216.17
2022-11-30T06:42:43.225Z,197.90
2022-11-30T06:45:31.632Z,186.97
2022-11-30T06:48:20.751Z,210.57
2022-11-30T06:51:09.878Z,197.00
2022-11-30T06:53:57.975Z,198.60
2022-11-30T06:56:46.617Z,197.17
2022-11-30T06:59:36.851Z,204.27
2022-11-30T07:02:25.111Z,207.27
2022-11-30T07:04:52.758Z,208.43
2022-11-30T07:07:20.536Z,180.73
2022-11-30T07:09:48.290Z,186.17
2022-11-30T07:12:16.220Z,193.03
2022-11-30T07:14:45.740Z,204.17
2022-11-30T07:17:13.735Z,202.90
2022-11-30T07:19:41.428Z,216.03
2022-11-30T07:22:09.080Z,207.77
2022-11-30T07:24:54.256Z,197.00
2022-11-30T07:27:21.965Z,185.47
2022-11-30T07:29:51.585Z,222.23
2022-11-30T07:32:19.673Z,208.40
2022-11-30T07:34:47.710Z,201.53
2022-11-30T07:37:15.565Z,212.47
2022-11-30T07:39:43.392Z,216.43
2022-11-30T07:42:11.021Z,209.10
2022-11-30T07:44:38.609Z,210.43
2022-11-30T07:47:07.627Z,206.23
2022-11-30T07:49:35.396Z,212.53
2022-11-30T07:52:04.519Z,202.87
2022-11-30T07:54:32.177Z,214.17
2022-11-30T07:56:59.789Z,229.27
2022-11-30T07:59:27.411Z,208.67
2022-11-30T08:01:55.093Z,229.53
2022-11-30T08:04:24.457Z,226.20
2022-11-30T08:06:54.608Z,195.60
2022-11-30T08:09:22.235Z,224.77
2022-11-30T08:11:50.553Z,204.43
2022-11-30T08:14:18.301Z,223.47
2022-11-30T08:16:46.042Z,231.27
2022-11-30T08:19:13.845Z,221.73
2022-11-30T08:21:42.817Z,209.50
2022-11-30T08:24:12.913Z,213.50
2022-11-30T08:26:41.015Z,233.63
2022-11-30T08:29:11.387Z,244.73
2022-11-30T08:31:39.851Z,219.57
2022-11-30T08:34:10.485Z,229.53
2022-11-30T08:36:38.921Z,230.77
2022-11-30T08:39:09.738Z,240.30
2022-11-30T08:41:39.001Z,225.97
2022-11-30T08:44:07.089Z,230.03
2022-11-30T08:46:51.859Z,228.40
2022-11-30T08:49:23.030Z,234.17
2022-11-30T08:52:16.534Z,251.80
2022-11-30T08:54:44.850Z,234.33
2022-11-30T08:57:12.751Z,223.20
2022-11-30T08:59:40.408Z,254.90
2022-11-30T09:02:10.048Z,229.67
2022-11-30T09:04:37.753Z,222.43
2022-11-30T09:07:05.506Z,240.43
2022-11-30T09:09:33.556Z,221.47
2022-11-30T09:12:02.747Z,242.77
2022-11-30T09:14:30.513Z,233.10
2022-11-30T09:16:58.196Z,227.77
2022-11-30T09:19:26.453Z,231.93
2022-11-30T09:21:55.415Z,239.17
2022-11-30T09:24:23.245Z,235.33
2022-11-30T09:26:50.918Z,237.53
2022-11-30T09:29:19.904Z,216.90
2022-11-30T09:31:48.994Z,219.50
2022-11-30T09:34:16.644Z,224.63
2022-11-30T09:36:44.230Z,214.07
2022-11-30T09:39:12.675Z,232.00
2022-11-30T09:42:13.832Z,226.50
2022-11-30T09:44:51.461Z,216.00
2022-11-30T09:47:40.108Z,235.87
2022-11-30T09:50:13.885Z,220.10
2022-11-30T09:52:44.391Z,251.33
2022-11-30T09:55:16.057Z,227.20
2022-11-30T09:57:47.334Z,240.53
2022-11-30T10:00:19.182Z,239.37
2022-11-30T10:02:47.635Z,234.50
2022-11-30T10:05:17.038Z,255.13
2022-11-30T10:07:57.512Z,236.10
2022-11-30T10:10:33.835Z,221.70
2022-11-30T10:13:17.294Z,230.70
2022-11-30T10:15:58.658Z,226.23
2022-11-30T10:18:37.827Z,240.37
2022-11-30T10:21:17.979Z,217.73
2022-11-30T10:23:58.988Z,231.77
2022-11-30T10:26:35.151Z,225.87
2022-11-30T10:29:13.835Z,240.47
2022-11-30T10:31:44.900Z,229.07
2022-11-30T10:34:20.468Z,226.13
2022-11-30T10:36:53.280Z,232.97
2022-11-30T10:39:25.575Z,239.77
2022-11-30T10:41:57.701Z,230.73
2022-11-30T10:44:29.840Z,240.20
2022-11-30T10:47:02.008Z,233.20
2022-11-30T10:49:32.119Z,232.18
2022-11-30T10:52:04.061Z,241.90
2022-11-30T10:54:32.732Z,255.27
2022-11-30T10:57:02.517Z,257.47
2022-11-30T10:59:39.506Z,232.43
2022-11-30T11:02:35.169Z,250.87
2022-11-30T11:05:11.099Z,264.98
2022-11-30T11:07:49.919Z,263.23
2022-11-30T11:10:19.840Z,236.03
2022-11-30T11:12:50.542Z,277.00
2022-11-30T11:15:23.921Z,257.88
2022-11-30T11:17:53.890Z,259.40
2022-11-30T11:20:34.261Z,248.20
2022-11-30T11:23:02.875Z,256.73
2022-11-30T11:25:36.016Z,244.95
2022-11-30T11:28:09.607Z,264.83
2022-11-30T11:30:38.392Z,253.40
2022-11-30T11:33:21.454Z,258.43
2022-11-30T11:35:50.586Z,256.33
2022-11-30T11:38:28.092Z,261.70
2022-11-30T11:40:58.766Z,253.90
2022-11-30T11:43:29.632Z,263.43
2022-11-30T11:46:01.595Z,272.33
2022-11-30T11:48:35.947Z,255.15
2022-11-30T11:51:07.799Z,270.92
2022-11-30T11:53:47.368Z,250.80
2022-11-30T11:56:23.189Z,279.87
2022-11-30T11:58:56.123Z,267.97
2022-11-30T12:01:40.699Z,241.00
2022-11-30T12:04:32.457Z,259.80
2022-11-30T12:07:03.371Z,255.03
2022-11-30T12:09:37.350Z,262.40
2022-11-30T12:12:05.498Z,247.50
2022-11-30T12:14:35.202Z,242.57
2022-11-30T12:17:15.482Z,275.65
2022-11-30T12:19:54.263Z,255.10
2022-11-30T12:22:51.095Z,235.17
2022-11-30T12:25:26.462Z,232.47
2022-11-30T12:28:08.887Z,238.18
2022-11-30T12:30:53.811Z,260.77
2022-11-30T12:33:36.704Z,227.65
2022-11-30T12:36:17.473Z,246.82
2022-11-30T12:38:49.858Z,253.73
2022-11-30T12:41:32.781Z,240.60
2022-11-30T12:44:16.612Z,248.07
2022-11-30T12:46:54.782Z,246.98
2022-11-30T12:49:36.981Z,253.77
2022-11-30T12:52:20.417Z,242.35
2022-11-30T12:54:56.879Z,251.35
2022-11-30T12:57:28.298Z,225.63
2022-11-30T13:00:07.032Z,242.43
2022-11-30T13:03:00.249Z,264.70
2022-11-30T13:05:33.615Z,265.17
2022-11-30T13:08:06.820Z,264.20
2022-11-30T13:10:41.367Z,252.18
2022-11-30T13:13:14.926Z,272.52
2022-11-30T13:15:43.949Z,275.75
2022-11-30T13:18:17.489Z,262.90
2022-11-30T13:20:51.151Z,265.20
2022-11-30T13:23:31.337Z,255.73
2022-11-30T13:26:08.677Z,264.10
2022-11-30T13:28:56.219Z,259.90
2022-11-30T13:31:26.796Z,250.95
2022-11-30T13:33:59.827Z,249.65
2022-11-30T13:36:49.079Z,254.35
2022-11-30T13:39:27.242Z,255.90
2022-11-30T13:42:37.580Z,255.13
2022-11-30T13:45:36.375Z,250.48
2022-11-30T13:48:19.687Z,243.13
2022-11-30T13:50:49.569Z,255.57
2022-11-30T13:53:25.397Z,239.07
2022-11-30T13:56:01.837Z,259.35
2022-11-30T13:58:30.853Z,249.90
2022-11-30T14:01:23.320Z,242.43
2022-11-30T14:04:23.742Z,247.35
2022-11-30T14:06:53.047Z,226.25
2022-11-30T14:10:08.456Z,264.63
2022-11-30T14:12:48.822Z,245.98
2022-11-30T14:15:53.225Z,244.07
2022-11-30T14:18:43.025Z,243.40
2022-11-30T14:21:17.567Z,232.73
2022-11-30T14:23:51.725Z,251.27
2022-11-30T14:26:24.644Z,247.83
2022-11-30T14:29:01.920Z,234.57
2022-11-30T14:31:32.866Z,234.83
2022-11-30T14:34:07.366Z,237.27
2022-11-30T14:36:38.674Z,238.75
2022-11-30T14:39:23.692Z,247.63
2022-11-30T14:41:51.345Z,253.33
2022-11-30T14:44:20.615Z,248.87
2022-11-30T14:46:48.324Z,244.73
2022-11-30T14:49:17.916Z,254.97
2022-11-30T14:51:49.065Z,241.90
2022-11-30T14:54:27.672Z,253.07
2022-11-30T14:57:02.290Z,233.80
2022-11-30T14:59:42.437Z,239.83
2022-11-30T15:02:20.308Z,260.63
2022-11-30T15:04:49.159Z,259.47
2022-11-30T15:07:17.922Z,244.67
2022-11-30T15:09:48.871Z,236.10
2022-11-30T15:12:20.079Z,257.37
2022-11-30T15:15:15.314Z,250.10
2022-11-30T15:18:11.093Z,240.90
2022-11-30T15:20:43.328Z,229.43
2022-11-30T15:23:14.186Z,228.93
2022-11-30T15:25:46.197Z,238.43
2022-11-30T15:28:18.905Z,234.23
2022-11-30T15:30:53.172Z,253.37
2022-11-30T15:33:24.211Z,228.03
2022-11-30T15:36:18.619Z,229.40
2022-11-30T15:38:50.233Z,229.93
2022-11-30T15:41:21.184Z,221.30
2022-11-30T15:43:53.320Z,253.40
2022-11-30T15:46:34.845Z,228.83
2022-11-30T15:49:07.967Z,215.23
2022-11-30T15:51:39.725Z,232.27
2022-11-30T15:54:07.798Z,229.70
2022-11-30T15:56:36.290Z,231.63
2022-11-30T15:59:06.120Z,217.10
2022-11-30T16:02:04.623Z,224.50
2022-11-30T16:05:12.411Z,207.97
2022-11-30T16:07:50.428Z,201.43
2022-11-30T16:10:21.832Z,225.97
2022-11-30T16:12:50.844Z,240.83
2022-11-30T16:15:21.037Z,224.50
2022-11-30T16:17:50.652Z,223.97
2022-11-30T16:20:20.823Z,209.90
2022-11-30T16:22:49.937Z,214.27
2022-11-30T16:25:20.303Z,211.03
2022-11-30T16:27:48.653Z,201.40
2022-11-30T16:30:18.537Z,205.97
2022-11-30T16:32:46.825Z,205.10
2022-11-30T16:35:24.750Z,213.87
2022-11-30T16:37:52.877Z,199.63
2022-11-30T16:40:21.277Z,212.47
2022-11-30T16:42:50.072Z,212.83
2022-11-30T16:45:20.371Z,198.67
2022-11-30T16:47:48.140Z,198.03
2022-11-30T16:50:16.415Z,219.23
2022-11-30T16:52:45.608Z,202.07
2022-11-30T16:55:14.837Z,208.20
2022-11-30T16:57:42.850Z,212.47
2022-11-30T17:00:13.473Z,223.37
2022-11-30T17:02:45.307Z,210.20
2022-11-30T17:05:14.908Z,214.70
2022-11-30T17:07:43.988Z,201.17
2022-11-30T17:10:13.857Z,209.43
2022-11-30T17:12:42.613Z,215.30
2022-11-30T17:15:15.227Z,214.20
2022-11-30T17:17:43.207Z,211.63
2022-11-30T17:20:11.901Z,207.93
2022-11-30T17:22:39.956Z,196.30
2022-11-30T17:25:13.295Z,211.67
2022-11-30T17:27:42.681Z,205.27
2022-11-30T17:30:11.921Z,192.43
2022-11-30T17:32:39.557Z,208.77
2022-11-30T17:35:08.718Z,212.37
2022-11-30T17:37:36.709Z,211.70
2022-11-30T17:40:05.082Z,205.03
2022-11-30T17:42:32.740Z,199.20
2022-11-30T17:45:01.763Z,202.63
2022-11-30T17:47:29.339Z,196.80
2022-11-30T17:49:57.624Z,212.13
2022-11-30T17:52:25.340Z,204.50
2022-11-30T17:54:53.038Z,187.13
2022-11-30T17:57:20.724Z,191.90
2022-11-30T17:59:48.428Z,200.10
2022-11-30T18:02:17.483Z,203.90
2022-11-30T18:04:45.404Z,200.10
2022-11-30T18:07:13.267Z,203.03
2022-11-30T18:09:42.699Z,189.30
2022-11-30T18:12:11.752Z,191.87
2022-11-30T18:14:39.517Z,201.10
2022-11-30T18:17:07.262Z,211.17
2022-11-30T18:19:36.373Z,188.13
2022-11-30T18:22:04.021Z,199.70
2022-11-30T18:24:31.705Z,198.57
2022-11-30T18:26:59.314Z,214.50
2022-11-30T18:29:27.062Z,201.03
2022-11-30T18:31:54.715Z,203.53
2022-11-30T18:34:22.791Z,218.63
2022-11-30T18:36:51.859Z,212.97
2022-11-30T18:39:19.515Z,184.57
2022-11-30T18:41:47.156Z,205.07
2022-11-30T18:44:14.813Z,192.30
2022-11-30T18:46:42.499Z,187.60
2022-11-30T18:49:10.210Z,197.70
2022-11-30T18:51:38.107Z,191.07
2022-11-30T18:54:08.889Z,192.50
2022-11-30T18:56:39.215Z,178.83
2022-11-30T18:59:09.062Z,188.43
2022-11-30T19:01:37.348Z,179.37
2022-11-30T19:04:07.072Z,179.03
2022-11-30T19:06:35.447Z,159.17
2022-11-30T19:09:06.282Z,176.63
2022-11-30T19:11:35.922Z,179.80
2022-11-30T19:14:04.922Z,160.90
2022-11-30T19:16:34.340Z,173.83
2022-11-30T19:19:03.437Z,171.07
2022-11-30T19:21:31.165Z,166.90
2022-11-30T19:23:59.270Z,158.30
2022-11-30T19:26:28.555Z,177.83
2022-11-30T19:28:58.931Z,155.43
2022-11-30T19:31:27.179Z,162.43
2022-11-30T19:33:56.303Z,157.53
2022-11-30T19:36:25.609Z,145.20
2022-11-30T19:38:53.447Z,176.20
2022-11-30T19:41:22.015Z,168.87
2022-11-30T19:44:01.073Z,169.43
2022-11-30T19:46:33.893Z,159.53
2022-11-30T19:49:02.355Z,152.57
2022-11-30T19:51:31.153Z,158.93
2022-11-30T19:54:00.202Z,171.80
2022-11-30T19:56:29.980Z,161.53
2022-11-30T19:59:04.007Z,164.37
2022-11-30T20:01:35.211Z,162.73
2022-11-30T20:04:03.331Z,163.00
2022-11-30T20:06:34.308Z,163.87
2022-11-30T20:09:03.185Z,183.70
2022-11-30T20:11:31.216Z,177.70
2022-11-30T20:14:00.160Z,186.63
2022-11-30T20:16:28.563Z,187.47
2022-11-30T20:19:00.598Z,172.20
2022-11-30T20:21:30.459Z,181.73
2022-11-30T20:23:59.987Z,197.87
2022-11-30T20:26:29.939Z,191.30
2022-11-30T20:28:58.934Z,187.57
2022-11-30T20:31:28.214Z,196.93
2022-11-30T20:33:57.410Z,194.00
2022-11-30T20:36:25.120Z,208.80
2022-11-30T20:38:52.856Z,196.13
2022-11-30T20:41:22.844Z,204.93
2022-11-30T20:43:51.078Z,199.87
2022-11-30T20:46:21.562Z,196.57
2022-11-30T20:48:50.093Z,209.93
2022-11-30T20:51:36.615Z,212.43
2022-11-30T20:54:07.317Z,187.80
2022-11-30T20:56:35.248Z,192.63
2022-11-30T20:59:05.028Z,204.80
2022-11-30T21:01:32.994Z,208.73
2022-11-30T21:04:19.702Z,191.90
2022-11-30T21:07:08.968Z,194.70
2022-11-30T21:09:56.866Z,172.20
2022-11-30T21:12:44.822Z,179.03
2022-11-30T21:15:32.822Z,187.57
2022-11-30T21:18:20.807Z,173.93
2022-11-30T21:21:11.956Z,175.07
2022-11-30T21:24:03.005Z,195.67
2022-11-30T21:26:51.181Z,163.40
2022-11-30T21:29:39.140Z,171.97
2022-11-30T21:32:27.133Z,171.83
2022-11-30T21:35:15.432Z,167.57
2022-11-30T21:38:03.359Z,182.07
2022-11-30T21:40:56.449Z,177.90
2022-11-30T21:43:44.387Z,169.60
2022-11-30T21:46:32.867Z,162.33
2022-11-30T21:49:20.977Z,175.33
2022-11-30T21:52:08.974Z,167.70
2022-11-30T21:54:56.921Z,167.67
2022-11-30T21:57:46.183Z,176.40
2022-11-30T22:00:34.119Z,173.10
2022-11-30T22:03:22.337Z,173.87
2022-11-30T22:06:12.338Z,177.33
2022-11-30T22:09:03.215Z,167.53
2022-11-30T22:11:51.511Z,167.37
2022-11-30T22:14:40.803Z,168.73
2022-11-30T22:17:28.718Z,169.23
2022-11-30T22:20:16.879Z,163.80
2022-11-30T22:23:04.779Z,168.77
2022-11-30T22:25:52.704Z,176.07
2022-11-30T22:28:42.074Z,165.23
2022-11-30T22:31:33.906Z,171.80
2022-11-30T22:34:22.512Z,179.90
2022-11-30T22:37:10.438Z,183.63
2022-11-30T22:39:58.401Z,182.97
2022-11-30T22:42:46.425Z,170.40
2022-11-30T22:45:34.335Z,184.57
2022-11-30T22:48:23.616Z,175.03
2022-11-30T22:51:13.717Z,156.80
2022-11-30T22:54:02.385Z,173.87
2022-11-30T22:56:50.312Z,179.57
2022-11-30T22:59:38.249Z,161.13
2022-11-30T23:02:26.257Z,180.50
2022-11-30T23:05:15.739Z,156.33
2022-11-30T23:08:03.698Z,171.03
2022-11-30T23:10:51.729Z,159.40
2022-11-30T23:13:40.858Z,175.63
2022-11-30T23:16:28.864Z,167.33
2022-11-30T23:19:18.061Z,177.57
2022-11-30T23:22:07.334Z,162.90
2022-11-30T23:24:55.821Z,162.50
2022-11-30T23:27:43.716Z,163.53
2022-11-30T23:30:32.735Z,171.90
2022-11-30T23:33:20.626Z,171.17
2022-11-30T23:36:09.855Z,161.27
2022-11-30T23:39:00.956Z,170.13
2022-11-30T23:41:49.018Z,197.10
2022-11-30T23:44:36.972Z,191.53
2022-11-30T23:47:24.890Z,183.47
2022-11-30T23:50:13.043Z,189.67
2022-11-30T23:53:00.949Z,198.03
2022-11-30T23:55:50.372Z,191.70
2022-11-30T23:58:39.499Z,194.97
